sensor_id;sensor_type;location;lat;lon;timestamp;P1;durP1;ratioP1;P2;durP2;ratioP2
19030;SDS011;9648;51.130;13.978;2022-11-02T00:01:36;26.48;;;16.40;;
19030;SDS011;9648;51.130;13.978;2022-11-02T00:04:05;25.75;;;15.18;;
19030;SDS011;9648;51.130;13.978;2022-11-02T00:06:32;23.20;;;13.93;;
19030;SDS011;9648;51.130;13.978;2022-11-02T00:08:59;22.73;;;13.98;;
19030;SDS011;9648;51.130;13.978;2022-11-02T00:11:25;24.38;;;14.20;;
19030;SDS011;9648;51.130;13.978;2022-11-02T00:13:52;18.08;;;11.60;;
19030;SDS011;9648;51.130;13.978;2022-11-02T00:16:21;18.27;;;11.25;;
19030;SDS011;9648;51.130;13.978;2022-11-02T00:18:50;19.40;;;10.88;;
19030;SDS011;9648;51.130;13.978;2022-11-02T00:21:19;15.43;;;9.03;;
19030;SDS011;9648;51.130;13.978;2022-11-02T00:23:47;13.30;;;8.52;;
19030;SDS011;9648;51.130;13.978;2022-11-02T00:26:15;13.57;;;8.18;;
19030;SDS011;9648;51.130;13.978;2022-11-02T00:28:42;13.10;;;8.13;;
19030;SDS011;9648;51.130;13.978;2022-11-02T00:31:09;14.38;;;8.50;;
19030;SDS011;9648;51.130;13.978;2022-11-02T00:33:37;13.63;;;7.80;;
19030;SDS011;9648;51.130;13.978;2022-11-02T00:36:04;11.38;;;7.60;;
19030;SDS011;9648;51.130;13.978;2022-11-02T00:38:31;13.98;;;8.45;;
19030;SDS011;9648;51.130;13.978;2022-11-02T00:40:58;12.68;;;8.15;;
19030;SDS011;9648;51.130;13.978;2022-11-02T00:43:25;11.90;;;8.03;;
19030;SDS011;9648;51.130;13.978;2022-11-02T00:45:52;14.95;;;9.23;;
19030;SDS011;9648;51.130;13.978;2022-11-02T00:48:18;14.80;;;9.20;;
19030;SDS011;9648;51.130;13.978;2022-11-02T00:50:46;16.70;;;9.60;;
19030;SDS011;9648;51.130;13.978;2022-11-02T00:53:13;17.00;;;9.85;;
19030;SDS011;9648;51.130;13.978;2022-11-02T00:55:40;17.13;;;10.55;;
19030;SDS011;9648;51.130;13.978;2022-11-02T00:58:07;16.63;;;10.00;;
19030;SDS011;9648;51.130;13.978;2022-11-02T01:00:33;17.33;;;10.53;;
19030;SDS011;9648;51.130;13.978;2022-11-02T01:03:00;17.45;;;10.40;;
19030;SDS011;9648;51.130;13.978;2022-11-02T01:05:27;15.57;;;9.90;;
19030;SDS011;9648;51.130;13.978;2022-11-02T01:07:56;16.25;;;10.38;;
19030;SDS011;9648;51.130;13.978;2022-11-02T01:10:22;15.77;;;9.55;;
19030;SDS011;9648;51.130;13.978;2022-11-02T01:12:51;17.63;;;10.32;;
19030;SDS011;9648;51.130;13.978;2022-11-02T01:15:18;19.03;;;10.60;;
19030;SDS011;9648;51.130;13.978;2022-11-02T01:17:45;18.63;;;11.80;;
19030;SDS011;9648;51.130;13.978;2022-11-02T01:20:11;23.63;;;13.32;;
19030;SDS011;9648;51.130;13.978;2022-11-02T01:22:38;19.15;;;12.18;;
19030;SDS011;9648;51.130;13.978;2022-11-02T01:25:07;19.15;;;11.73;;
19030;SDS011;9648;51.130;13.978;2022-11-02T01:27:34;20.25;;;12.20;;
19030;SDS011;9648;51.130;13.978;2022-11-02T01:30:01;17.83;;;10.90;;
19030;SDS011;9648;51.130;13.978;2022-11-02T01:32:28;27.52;;;13.70;;
19030;SDS011;9648;51.130;13.978;2022-11-02T01:34:55;22.70;;;12.43;;
19030;SDS011;9648;51.130;13.978;2022-11-02T01:37:22;21.83;;;12.27;;
19030;SDS011;9648;51.130;13.978;2022-11-02T01:39:49;22.63;;;12.30;;
19030;SDS011;9648;51.130;13.978;2022-11-02T01:42:17;20.90;;;11.55;;
19030;SDS011;9648;51.130;13.978;2022-11-02T01:44:45;20.27;;;11.37;;
19030;SDS011;9648;51.130;13.978;2022-11-02T01:47:12;20.08;;;12.05;;
19030;SDS011;9648;51.130;13.978;2022-11-02T01:49:44;18.73;;;11.32;;
19030;SDS011;9648;51.130;13.978;2022-11-02T01:52:14;18.50;;;11.50;;
19030;SDS011;9648;51.130;13.978;2022-11-02T01:54:46;17.13;;;11.32;;
19030;SDS011;9648;51.130;13.978;2022-11-02T01:57:18;22.60;;;13.13;;
19030;SDS011;9648;51.130;13.978;2022-11-02T01:59:47;18.80;;;11.48;;
19030;SDS011;9648;51.130;13.978;2022-11-02T02:02:20;19.10;;;11.50;;
19030;SDS011;9648;51.130;13.978;2022-11-02T02:04:50;24.33;;;13.50;;
19030;SDS011;9648;51.130;13.978;2022-11-02T02:07:19;21.33;;;12.93;;
19030;SDS011;9648;51.130;13.978;2022-11-02T02:09:50;27.83;;;14.45;;
19030;SDS011;9648;51.130;13.978;2022-11-02T02:12:20;21.65;;;12.73;;
19030;SDS011;9648;51.130;13.978;2022-11-02T02:14:48;20.80;;;11.93;;
19030;SDS011;9648;51.130;13.978;2022-11-02T02:17:19;25.20;;;13.70;;
19030;SDS011;9648;51.130;13.978;2022-11-02T02:19:58;22.13;;;12.88;;
19030;SDS011;9648;51.130;13.978;2022-11-02T02:22:35;22.92;;;13.27;;
19030;SDS011;9648;51.130;13.978;2022-11-02T02:25:34;22.60;;;12.50;;
19030;SDS011;9648;51.130;13.978;2022-11-02T02:28:28;19.87;;;11.90;;
19030;SDS011;9648;51.130;13.978;2022-11-02T02:31:06;16.85;;;11.65;;
19030;SDS011;9648;51.130;13.978;2022-11-02T02:33:38;16.50;;;11.05;;
19030;SDS011;9648;51.130;13.978;2022-11-02T02:36:12;20.48;;;12.25;;
19030;SDS011;9648;51.130;13.978;2022-11-02T02:38:46;19.30;;;12.55;;
19030;SDS011;9648;51.130;13.978;2022-11-02T02:41:22;21.63;;;12.70;;
19030;SDS011;9648;51.130;13.978;2022-11-02T02:43:57;20.80;;;11.57;;
19030;SDS011;9648;51.130;13.978;2022-11-02T02:46:28;18.47;;;10.27;;
19030;SDS011;9648;51.130;13.978;2022-11-02T02:48:58;16.25;;;10.27;;
19030;SDS011;9648;51.130;13.978;2022-11-02T02:51:27;15.95;;;10.13;;
19030;SDS011;9648;51.130;13.978;2022-11-02T02:53:57;14.95;;;9.75;;
19030;SDS011;9648;51.130;13.978;2022-11-02T02:56:26;17.20;;;10.73;;
19030;SDS011;9648;51.130;13.978;2022-11-02T02:58:59;19.60;;;11.60;;
19030;SDS011;9648;51.130;13.978;2022-11-02T03:01:28;17.42;;;11.05;;
19030;SDS011;9648;51.130;13.978;2022-11-02T03:03:55;16.70;;;10.55;;
19030;SDS011;9648;51.130;13.978;2022-11-02T03:06:23;15.57;;;10.47;;
19030;SDS011;9648;51.130;13.978;2022-11-02T03:08:55;17.02;;;10.15;;
19030;SDS011;9648;51.130;13.978;2022-11-02T03:11:31;18.70;;;11.80;;
19030;SDS011;9648;51.130;13.978;2022-11-02T03:14:02;16.48;;;10.50;;
19030;SDS011;9648;51.130;13.978;2022-11-02T03:16:39;16.10;;;9.95;;
19030;SDS011;9648;51.130;13.978;2022-11-02T03:19:14;20.92;;;11.48;;
19030;SDS011;9648;51.130;13.978;2022-11-02T03:21:47;17.23;;;10.87;;
19030;SDS011;9648;51.130;13.978;2022-11-02T03:24:21;14.63;;;9.82;;
19030;SDS011;9648;51.130;13.978;2022-11-02T03:26:56;16.60;;;10.23;;
19030;SDS011;9648;51.130;13.978;2022-11-02T03:29:35;18.05;;;11.05;;
19030;SDS011;9648;51.130;13.978;2022-11-02T03:32:06;19.92;;;11.18;;
19030;SDS011;9648;51.130;13.978;2022-11-02T03:34:38;16.92;;;10.20;;
19030;SDS011;9648;51.130;13.978;2022-11-02T03:37:10;22.25;;;11.23;;
19030;SDS011;9648;51.130;13.978;2022-11-02T03:39:43;18.88;;;10.85;;
19030;SDS011;9648;51.130;13.978;2022-11-02T03:42:14;18.13;;;10.30;;
19030;SDS011;9648;51.130;13.978;2022-11-02T03:44:45;17.02;;;10.05;;
19030;SDS011;9648;51.130;13.978;2022-11-02T03:47:15;20.03;;;10.50;;
19030;SDS011;9648;51.130;13.978;2022-11-02T03:49:44;18.10;;;10.30;;
19030;SDS011;9648;51.130;13.978;2022-11-02T03:52:13;16.15;;;9.45;;
19030;SDS011;9648;51.130;13.978;2022-11-02T03:54:46;17.48;;;9.70;;
19030;SDS011;9648;51.130;13.978;2022-11-02T03:57:20;15.63;;;9.48;;
19030;SDS011;9648;51.130;13.978;2022-11-02T03:59:53;18.90;;;10.23;;
19030;SDS011;9648;51.130;13.978;2022-11-02T04:02:33;16.75;;;9.63;;
19030;SDS011;9648;51.130;13.978;2022-11-02T04:05:01;19.40;;;10.73;;
19030;SDS011;9648;51.130;13.978;2022-11-02T04:07:29;17.15;;;9.23;;
19030;SDS011;9648;51.130;13.978;2022-11-02T04:10:19;17.98;;;10.10;;
19030;SDS011;9648;51.130;13.978;2022-11-02T04:12:45;16.47;;;9.60;;
19030;SDS011;9648;51.130;13.978;2022-11-02T04:15:31;17.77;;;9.65;;
19030;SDS011;9648;51.130;13.978;2022-11-02T04:17:57;15.88;;;9.10;;
19030;SDS011;9648;51.130;13.978;2022-11-02T04:20:42;17.55;;;9.68;;
19030;SDS011;9648;51.130;13.978;2022-11-02T04:23:09;18.02;;;9.20;;
19030;SDS011;9648;51.130;13.978;2022-11-02T04:25:53;14.27;;;8.60;;
19030;SDS011;9648;51.130;13.978;2022-11-02T04:28:20;13.98;;;7.75;;
19030;SDS011;9648;51.130;13.978;2022-11-02T04:30:48;14.65;;;8.07;;
19030;SDS011;9648;51.130;13.978;2022-11-02T04:33:15;15.55;;;8.90;;
19030;SDS011;9648;51.130;13.978;2022-11-02T04:35:59;15.32;;;7.95;;
19030;SDS011;9648;51.130;13.978;2022-11-02T04:38:27;12.93;;;7.45;;
19030;SDS011;9648;51.130;13.978;2022-11-02T04:41:06;15.00;;;7.72;;
19030;SDS011;9648;51.130;13.978;2022-11-02T04:43:51;15.20;;;8.45;;
19030;SDS011;9648;51.130;13.978;2022-11-02T04:46:20;17.20;;;9.37;;
19030;SDS011;9648;51.130;13.978;2022-11-02T04:48:48;17.23;;;9.00;;
19030;SDS011;9648;51.130;13.978;2022-11-02T04:51:15;17.60;;;8.20;;
19030;SDS011;9648;51.130;13.978;2022-11-02T04:53:44;15.40;;;8.52;;
19030;SDS011;9648;51.130;13.978;2022-11-02T04:56:11;15.07;;;8.30;;
19030;SDS011;9648;51.130;13.978;2022-11-02T04:58:38;14.07;;;7.47;;
19030;SDS011;9648;51.130;13.978;2022-11-02T05:01:05;13.03;;;7.37;;
19030;SDS011;9648;51.130;13.978;2022-11-02T05:03:33;16.13;;;7.72;;
19030;SDS011;9648;51.130;13.978;2022-11-02T05:06:00;13.68;;;7.63;;
19030;SDS011;9648;51.130;13.978;2022-11-02T05:08:27;13.55;;;7.07;;
19030;SDS011;9648;51.130;13.978;2022-11-02T05:10:54;14.10;;;7.30;;
19030;SDS011;9648;51.130;13.978;2022-11-02T05:13:22;13.57;;;6.93;;
19030;SDS011;9648;51.130;13.978;2022-11-02T05:15:49;12.50;;;6.90;;
19030;SDS011;9648;51.130;13.978;2022-11-02T05:18:16;14.85;;;7.53;;
19030;SDS011;9648;51.130;13.978;2022-11-02T05:20:48;14.68;;;8.00;;
19030;SDS011;9648;51.130;13.978;2022-11-02T05:23:16;15.00;;;7.77;;
19030;SDS011;9648;51.130;13.978;2022-11-02T05:25:50;14.88;;;7.93;;
19030;SDS011;9648;51.130;13.978;2022-11-02T05:28:17;16.75;;;7.60;;
19030;SDS011;9648;51.130;13.978;2022-11-02T05:30:44;13.77;;;7.72;;
19030;SDS011;9648;51.130;13.978;2022-11-02T05:33:11;13.77;;;7.60;;
19030;SDS011;9648;51.130;13.978;2022-11-02T05:35:37;16.20;;;7.72;;
19030;SDS011;9648;51.130;13.978;2022-11-02T05:38:06;14.50;;;7.63;;
19030;SDS011;9648;51.130;13.978;2022-11-02T05:40:32;17.73;;;8.68;;
19030;SDS011;9648;51.130;13.978;2022-11-02T05:43:02;16.73;;;8.52;;
19030;SDS011;9648;51.130;13.978;2022-11-02T05:45:29;15.23;;;7.97;;
19030;SDS011;9648;51.130;13.978;2022-11-02T05:47:58;19.92;;;8.50;;
19030;SDS011;9648;51.130;13.978;2022-11-02T05:50:26;19.45;;;8.55;;
19030;SDS011;9648;51.130;13.978;2022-11-02T05:52:53;21.08;;;9.75;;
19030;SDS011;9648;51.130;13.978;2022-11-02T05:55:21;16.15;;;8.10;;
19030;SDS011;9648;51.130;13.978;2022-11-02T05:57:49;15.43;;;7.68;;
19030;SDS011;9648;51.130;13.978;2022-11-02T06:00:17;18.63;;;8.43;;
19030;SDS011;9648;51.130;13.978;2022-11-02T06:02:44;15.98;;;7.40;;
19030;SDS011;9648;51.130;13.978;2022-11-02T06:05:11;17.17;;;7.78;;
19030;SDS011;9648;51.130;13.978;2022-11-02T06:07:38;15.98;;;7.90;;
19030;SDS011;9648;51.130;13.978;2022-11-02T06:10:05;15.18;;;7.47;;
19030;SDS011;9648;51.130;13.978;2022-11-02T06:12:34;15.77;;;7.63;;
19030;SDS011;9648;51.130;13.978;2022-11-02T06:15:01;15.93;;;7.40;;
19030;SDS011;9648;51.130;13.978;2022-11-02T06:17:27;13.90;;;7.00;;
19030;SDS011;9648;51.130;13.978;2022-11-02T06:20:01;17.67;;;7.43;;
19030;SDS011;9648;51.130;13.978;2022-11-02T06:22:28;13.73;;;7.22;;
19030;SDS011;9648;51.130;13.978;2022-11-02T06:24:54;13.10;;;7.18;;
19030;SDS011;9648;51.130;13.978;2022-11-02T06:27:21;13.52;;;7.10;;
19030;SDS011;9648;51.130;13.978;2022-11-02T06:29:49;14.88;;;7.30;;
19030;SDS011;9648;51.130;13.978;2022-11-02T06:32:16;14.05;;;7.00;;
19030;SDS011;9648;51.130;13.978;2022-11-02T06:34:43;14.75;;;7.22;;
19030;SDS011;9648;51.130;13.978;2022-11-02T06:37:10;14.23;;;7.15;;
19030;SDS011;9648;51.130;13.978;2022-11-02T06:39:36;16.63;;;7.60;;
19030;SDS011;9648;51.130;13.978;2022-11-02T06:42:03;14.25;;;7.45;;
19030;SDS011;9648;51.130;13.978;2022-11-02T06:44:30;15.07;;;7.15;;
19030;SDS011;9648;51.130;13.978;2022-11-02T06:46:58;17.33;;;7.35;;
19030;SDS011;9648;51.130;13.978;2022-11-02T06:49:25;13.90;;;6.80;;
19030;SDS011;9648;51.130;13.978;2022-11-02T06:51:52;16.20;;;6.65;;
19030;SDS011;9648;51.130;13.978;2022-11-02T06:54:18;12.90;;;6.13;;
19030;SDS011;9648;51.130;13.978;2022-11-02T06:56:45;13.30;;;5.93;;
19030;SDS011;9648;51.130;13.978;2022-11-02T06:59:12;13.23;;;5.50;;
19030;SDS011;9648;51.130;13.978;2022-11-02T07:01:39;11.05;;;4.75;;
19030;SDS011;9648;51.130;13.978;2022-11-02T07:04:07;11.68;;;4.35;;
19030;SDS011;9648;51.130;13.978;2022-11-02T07:06:34;8.95;;;4.00;;
19030;SDS011;9648;51.130;13.978;2022-11-02T07:09:01;9.48;;;4.05;;
19030;SDS011;9648;51.130;13.978;2022-11-02T07:11:27;9.35;;;3.92;;
19030;SDS011;9648;51.130;13.978;2022-11-02T07:13:54;9.50;;;3.67;;
19030;SDS011;9648;51.130;13.978;2022-11-02T07:16:21;11.20;;;3.80;;
19030;SDS011;9648;51.130;13.978;2022-11-02T07:18:49;12.10;;;4.20;;
19030;SDS011;9648;51.130;13.978;2022-11-02T07:21:17;11.95;;;4.60;;
19030;SDS011;9648;51.130;13.978;2022-11-02T07:23:44;13.38;;;4.80;;
19030;SDS011;9648;51.130;13.978;2022-11-02T07:26:10;11.45;;;4.88;;
19030;SDS011;9648;51.130;13.978;2022-11-02T07:28:37;17.00;;;6.55;;
19030;SDS011;9648;51.130;13.978;2022-11-02T07:31:04;16.53;;;6.70;;
19030;SDS011;9648;51.130;13.978;2022-11-02T07:33:31;16.23;;;6.60;;
19030;SDS011;9648;51.130;13.978;2022-11-02T07:35:57;16.00;;;6.63;;
19030;SDS011;9648;51.130;13.978;2022-11-02T07:38:28;17.58;;;6.53;;
19030;SDS011;9648;51.130;13.978;2022-11-02T07:40:55;16.20;;;6.68;;
19030;SDS011;9648;51.130;13.978;2022-11-02T07:43:22;16.57;;;6.40;;
19030;SDS011;9648;51.130;13.978;2022-11-02T07:45:48;18.80;;;6.47;;
19030;SDS011;9648;51.130;13.978;2022-11-02T07:48:15;15.50;;;6.40;;
19030;SDS011;9648;51.130;13.978;2022-11-02T07:50:42;21.75;;;7.90;;
19030;SDS011;9648;51.130;13.978;2022-11-02T07:53:09;19.23;;;7.63;;
19030;SDS011;9648;51.130;13.978;2022-11-02T07:55:37;18.65;;;7.13;;
19030;SDS011;9648;51.130;13.978;2022-11-02T07:58:04;17.02;;;7.55;;
19030;SDS011;9648;51.130;13.978;2022-11-02T08:00:35;16.02;;;6.90;;
19030;SDS011;9648;51.130;13.978;2022-11-02T08:03:05;19.25;;;7.32;;
19030;SDS011;9648;51.130;13.978;2022-11-02T08:05:34;16.15;;;6.90;;
19030;SDS011;9648;51.130;13.978;2022-11-02T08:08:03;13.18;;;6.63;;
19030;SDS011;9648;51.130;13.978;2022-11-02T08:10:32;15.98;;;7.25;;
19030;SDS011;9648;51.130;13.978;2022-11-02T08:13:01;15.00;;;6.60;;
19030;SDS011;9648;51.130;13.978;2022-11-02T08:15:28;17.40;;;6.72;;
19030;SDS011;9648;51.130;13.978;2022-11-02T08:17:58;17.40;;;6.78;;
19030;SDS011;9648;51.130;13.978;2022-11-02T08:20:26;15.55;;;6.72;;
19030;SDS011;9648;51.130;13.978;2022-11-02T08:22:53;14.17;;;5.80;;
19030;SDS011;9648;51.130;13.978;2022-11-02T08:25:19;15.18;;;6.10;;
19030;SDS011;9648;51.130;13.978;2022-11-02T08:27:46;17.60;;;7.25;;
19030;SDS011;9648;51.130;13.978;2022-11-02T08:30:14;20.43;;;8.37;;
19030;SDS011;9648;51.130;13.978;2022-11-02T08:32:41;18.35;;;7.47;;
19030;SDS011;9648;51.130;13.978;2022-11-02T08:35:08;12.68;;;5.75;;
19030;SDS011;9648;51.130;13.978;2022-11-02T08:37:35;14.48;;;5.70;;
19030;SDS011;9648;51.130;13.978;2022-11-02T08:40:01;13.85;;;5.30;;
19030;SDS011;9648;51.130;13.978;2022-11-02T08:42:28;17.05;;;5.60;;
19030;SDS011;9648;51.130;13.978;2022-11-02T08:44:55;15.50;;;5.60;;
19030;SDS011;9648;51.130;13.978;2022-11-02T08:47:23;14.00;;;4.75;;
19030;SDS011;9648;51.130;13.978;2022-11-02T08:49:50;11.13;;;4.70;;
19030;SDS011;9648;51.130;13.978;2022-11-02T08:52:17;13.32;;;4.20;;
19030;SDS011;9648;51.130;13.978;2022-11-02T08:54:44;12.35;;;4.13;;
19030;SDS011;9648;51.130;13.978;2022-11-02T08:57:10;15.70;;;4.25;;
19030;SDS011;9648;51.130;13.978;2022-11-02T08:59:37;11.93;;;3.85;;
19030;SDS011;9648;51.130;13.978;2022-11-02T09:02:04;10.50;;;3.17;;
19030;SDS011;9648;51.130;13.978;2022-11-02T09:04:32;9.07;;;3.28;;
19030;SDS011;9648;51.130;13.978;2022-11-02T09:06:59;11.48;;;3.25;;
19030;SDS011;9648;51.130;13.978;2022-11-02T09:09:25;10.35;;;2.78;;
19030;SDS011;9648;51.130;13.978;2022-11-02T09:11:52;10.98;;;2.88;;
19030;SDS011;9648;51.130;13.978;2022-11-02T09:14:19;13.88;;;3.10;;
19030;SDS011;9648;51.130;13.978;2022-11-02T09:16:46;13.73;;;2.63;;
19030;SDS011;9648;51.130;13.978;2022-11-02T09:19:12;9.73;;;2.40;;
19030;SDS011;9648;51.130;13.978;2022-11-02T09:21:40;11.30;;;2.90;;
19030;SDS011;9648;51.130;13.978;2022-11-02T09:24:08;8.80;;;2.72;;
19030;SDS011;9648;51.130;13.978;2022-11-02T09:26:35;13.13;;;2.78;;
19030;SDS011;9648;51.130;13.978;2022-11-02T09:29:02;13.02;;;2.50;;
19030;SDS011;9648;51.130;13.978;2022-11-02T09:31:28;9.33;;;2.47;;
19030;SDS011;9648;51.130;13.978;2022-11-02T09:33:55;11.15;;;2.70;;
19030;SDS011;9648;51.130;13.978;2022-11-02T09:36:22;13.70;;;2.33;;
19030;SDS011;9648;51.130;13.978;2022-11-02T09:38:50;9.80;;;2.17;;
19030;SDS011;9648;51.130;13.978;2022-11-02T09:41:18;11.20;;;2.28;;
19030;SDS011;9648;51.130;13.978;2022-11-02T09:43:52;12.60;;;2.40;;
19030;SDS011;9648;51.130;13.978;2022-11-02T09:46:28;11.18;;;2.30;;
19030;SDS011;9648;51.130;13.978;2022-11-02T09:48:57;9.50;;;2.33;;
19030;SDS011;9648;51.130;13.978;2022-11-02T09:51:30;12.65;;;2.40;;
19030;SDS011;9648;51.130;13.978;2022-11-02T09:54:03;10.73;;;1.90;;
19030;SDS011;9648;51.130;13.978;2022-11-02T09:56:33;7.00;;;1.50;;
19030;SDS011;9648;51.130;13.978;2022-11-02T09:59:01;9.63;;;1.88;;
19030;SDS011;9648;51.130;13.978;2022-11-02T10:01:33;7.53;;;1.90;;
19030;SDS011;9648;51.130;13.978;2022-11-02T10:07:26;12.38;;;1.80;;
19030;SDS011;9648;51.130;13.978;2022-11-02T10:10:01;10.00;;;1.70;;
19030;SDS011;9648;51.130;13.978;2022-11-02T10:12:33;5.75;;;1.55;;
19030;SDS011;9648;51.130;13.978;2022-11-02T10:15:08;6.30;;;1.60;;
19030;SDS011;9648;51.130;13.978;2022-11-02T10:17:40;7.95;;;1.70;;
19030;SDS011;9648;51.130;13.978;2022-11-02T10:20:18;7.37;;;1.63;;
19030;SDS011;9648;51.130;13.978;2022-11-02T10:22:50;5.68;;;1.42;;
19030;SDS011;9648;51.130;13.978;2022-11-02T10:25:20;7.13;;;1.60;;
19030;SDS011;9648;51.130;13.978;2022-11-02T10:27:48;5.70;;;1.50;;
19030;SDS011;9648;51.130;13.978;2022-11-02T10:30:21;6.28;;;1.50;;
19030;SDS011;9648;51.130;13.978;2022-11-02T10:32:48;7.68;;;1.67;;
19030;SDS011;9648;51.130;13.978;2022-11-02T10:35:18;12.47;;;1.90;;
19030;SDS011;9648;51.130;13.978;2022-11-02T10:37:55;7.05;;;1.40;;
19030;SDS011;9648;51.130;13.978;2022-11-02T10:40:37;7.40;;;1.40;;
19030;SDS011;9648;51.130;13.978;2022-11-02T10:43:20;6.43;;;1.75;;
19030;SDS011;9648;51.130;13.978;2022-11-02T10:46:06;7.22;;;1.73;;
19030;SDS011;9648;51.130;13.978;2022-11-02T10:48:43;6.47;;;1.48;;
19030;SDS011;9648;51.130;13.978;2022-11-02T10:51:16;8.07;;;1.60;;
19030;SDS011;9648;51.130;13.978;2022-11-02T10:53:46;5.53;;;1.53;;
19030;SDS011;9648;51.130;13.978;2022-11-02T10:56:17;6.38;;;1.70;;
19030;SDS011;9648;51.130;13.978;2022-11-02T10:58:50;7.40;;;1.70;;
19030;SDS011;9648;51.130;13.978;2022-11-02T11:01:23;6.20;;;1.95;;
19030;SDS011;9648;51.130;13.978;2022-11-02T11:03:54;7.32;;;1.83;;
19030;SDS011;9648;51.130;13.978;2022-11-02T11:06:22;9.93;;;2.20;;
19030;SDS011;9648;51.130;13.978;2022-11-02T11:08:51;9.85;;;1.80;;
19030;SDS011;9648;51.130;13.978;2022-11-02T11:11:26;8.23;;;1.80;;
19030;SDS011;9648;51.130;13.978;2022-11-02T11:13:56;8.73;;;1.77;;
19030;SDS011;9648;51.130;13.978;2022-11-02T11:16:29;7.93;;;1.80;;
19030;SDS011;9648;51.130;13.978;2022-11-02T11:19:01;7.97;;;1.75;;
19030;SDS011;9648;51.130;13.978;2022-11-02T11:21:34;7.18;;;1.90;;
19030;SDS011;9648;51.130;13.978;2022-11-02T11:24:19;6.53;;;1.60;;
19030;SDS011;9648;51.130;13.978;2022-11-02T11:27:11;5.93;;;1.42;;
19030;SDS011;9648;51.130;13.978;2022-11-02T11:29:44;6.90;;;1.90;;
19030;SDS011;9648;51.130;13.978;2022-11-02T11:32:14;6.77;;;1.60;;
19030;SDS011;9648;51.130;13.978;2022-11-02T11:34:43;6.93;;;1.80;;
19030;SDS011;9648;51.130;13.978;2022-11-02T11:37:14;7.15;;;1.90;;
19030;SDS011;9648;51.130;13.978;2022-11-02T11:39:42;7.43;;;1.90;;
19030;SDS011;9648;51.130;13.978;2022-11-02T11:42:14;6.72;;;1.80;;
19030;SDS011;9648;51.130;13.978;2022-11-02T11:44:44;9.43;;;1.80;;
19030;SDS011;9648;51.130;13.978;2022-11-02T11:47:16;6.40;;;1.73;;
19030;SDS011;9648;51.130;13.978;2022-11-02T11:49:50;5.80;;;1.60;;
19030;SDS011;9648;51.130;13.978;2022-11-02T11:52:19;7.07;;;1.80;;
19030;SDS011;9648;51.130;13.978;2022-11-02T11:54:53;7.03;;;1.85;;
19030;SDS011;9648;51.130;13.978;2022-11-02T11:57:24;8.77;;;1.88;;
19030;SDS011;9648;51.130;13.978;2022-11-02T11:59:53;6.85;;;1.55;;
19030;SDS011;9648;51.130;13.978;2022-11-02T12:02:23;8.32;;;2.05;;
19030;SDS011;9648;51.130;13.978;2022-11-02T12:04:56;8.60;;;1.90;;
19030;SDS011;9648;51.130;13.978;2022-11-02T12:07:34;8.63;;;1.80;;
19030;SDS011;9648;51.130;13.978;2022-11-02T12:10:15;8.77;;;2.20;;
19030;SDS011;9648;51.130;13.978;2022-11-02T12:12:55;6.32;;;1.67;;
19030;SDS011;9648;51.130;13.978;2022-11-02T12:15:38;6.67;;;1.90;;
19030;SDS011;9648;51.130;13.978;2022-11-02T12:18:22;7.65;;;2.00;;
19030;SDS011;9648;51.130;13.978;2022-11-02T12:21:02;8.40;;;1.83;;
19030;SDS011;9648;51.130;13.978;2022-11-02T12:23:47;9.27;;;2.00;;
19030;SDS011;9648;51.130;13.978;2022-11-02T12:26:29;7.65;;;2.08;;
19030;SDS011;9648;51.130;13.978;2022-11-02T12:29:15;5.80;;;1.70;;
19030;SDS011;9648;51.130;13.978;2022-11-02T12:32:05;8.65;;;1.85;;
19030;SDS011;9648;51.130;13.978;2022-11-02T12:34:48;5.82;;;1.67;;
19030;SDS011;9648;51.130;13.978;2022-11-02T12:37:27;7.03;;;1.48;;
19030;SDS011;9648;51.130;13.978;2022-11-02T12:40:05;6.05;;;1.52;;
19030;SDS011;9648;51.130;13.978;2022-11-02T12:42:47;10.68;;;2.05;;
19030;SDS011;9648;51.130;13.978;2022-11-02T12:45:23;5.90;;;1.70;;
19030;SDS011;9648;51.130;13.978;2022-11-02T12:47:58;9.60;;;2.13;;
19030;SDS011;9648;51.130;13.978;2022-11-02T12:50:35;7.88;;;1.85;;
19030;SDS011;9648;51.130;13.978;2022-11-02T12:53:20;8.88;;;1.88;;
19030;SDS011;9648;51.130;13.978;2022-11-02T12:55:59;10.80;;;1.90;;
19030;SDS011;9648;51.130;13.978;2022-11-02T12:58:28;6.85;;;2.00;;
19030;SDS011;9648;51.130;13.978;2022-11-02T13:01:00;7.60;;;1.85;;
19030;SDS011;9648;51.130;13.978;2022-11-02T13:03:35;7.03;;;1.70;;
19030;SDS011;9648;51.130;13.978;2022-11-02T13:06:09;7.80;;;1.80;;
19030;SDS011;9648;51.130;13.978;2022-11-02T13:08:41;6.30;;;1.40;;
19030;SDS011;9648;51.130;13.978;2022-11-02T13:11:13;9.00;;;1.60;;
19030;SDS011;9648;51.130;13.978;2022-11-02T13:13:44;7.45;;;1.80;;
19030;SDS011;9648;51.130;13.978;2022-11-02T13:16:16;9.85;;;1.83;;
19030;SDS011;9648;51.130;13.978;2022-11-02T13:18:55;5.20;;;1.23;;
19030;SDS011;9648;51.130;13.978;2022-11-02T13:21:27;7.07;;;1.60;;
19030;SDS011;9648;51.130;13.978;2022-11-02T13:23:59;11.57;;;1.70;;
19030;SDS011;9648;51.130;13.978;2022-11-02T13:26:26;7.75;;;1.45;;
19030;SDS011;9648;51.130;13.978;2022-11-02T13:28:55;5.68;;;1.38;;
19030;SDS011;9648;51.130;13.978;2022-11-02T13:31:31;6.03;;;1.50;;
19030;SDS011;9648;51.130;13.978;2022-11-02T13:34:01;7.18;;;1.52;;
19030;SDS011;9648;51.130;13.978;2022-11-02T13:36:34;8.02;;;1.60;;
19030;SDS011;9648;51.130;13.978;2022-11-02T13:39:03;7.78;;;1.42;;
19030;SDS011;9648;51.130;13.978;2022-11-02T13:41:38;6.00;;;1.60;;
19030;SDS011;9648;51.130;13.978;2022-11-02T13:47:43;7.18;;;1.40;;
19030;SDS011;9648;51.130;13.978;2022-11-02T13:50:41;7.60;;;1.30;;
19030;SDS011;9648;51.130;13.978;2022-11-02T13:53:13;4.43;;;1.40;;
19030;SDS011;9648;51.130;13.978;2022-11-02T13:55:45;4.65;;;1.30;;
19030;SDS011;9648;51.130;13.978;2022-11-02T13:58:19;5.63;;;1.30;;
19030;SDS011;9648;51.130;13.978;2022-11-02T14:00:49;6.28;;;1.17;;
19030;SDS011;9648;51.130;13.978;2022-11-02T14:03:20;5.95;;;1.52;;
19030;SDS011;9648;51.130;13.978;2022-11-02T14:05:52;5.20;;;1.25;;
19030;SDS011;9648;51.130;13.978;2022-11-02T14:08:24;7.00;;;1.70;;
19030;SDS011;9648;51.130;13.978;2022-11-02T14:14:05;6.05;;;1.35;;
19030;SDS011;9648;51.130;13.978;2022-11-02T14:16:41;4.63;;;1.40;;
19030;SDS011;9648;51.130;13.978;2022-11-02T14:19:21;5.63;;;1.48;;
19030;SDS011;9648;51.130;13.978;2022-11-02T14:22:08;5.43;;;1.50;;
19030;SDS011;9648;51.130;13.978;2022-11-02T14:27:43;8.07;;;1.65;;
19030;SDS011;9648;51.130;13.978;2022-11-02T14:33:15;4.80;;;1.40;;
19030;SDS011;9648;51.130;13.978;2022-11-02T14:35:53;8.60;;;1.50;;
19030;SDS011;9648;51.130;13.978;2022-11-02T14:38:27;5.00;;;1.35;;
19030;SDS011;9648;51.130;13.978;2022-11-02T14:41:17;7.32;;;1.45;;
19030;SDS011;9648;51.130;13.978;2022-11-02T14:43:58;8.57;;;3.07;;
19030;SDS011;9648;51.130;13.978;2022-11-02T14:46:37;10.05;;;3.67;;
19030;SDS011;9648;51.130;13.978;2022-11-02T14:49:20;8.07;;;2.80;;
19030;SDS011;9648;51.130;13.978;2022-11-02T14:52:00;11.88;;;4.93;;
19030;SDS011;9648;51.130;13.978;2022-11-02T14:54:29;9.90;;;5.23;;
19030;SDS011;9648;51.130;13.978;2022-11-02T14:56:59;11.77;;;6.20;;
19030;SDS011;9648;51.130;13.978;2022-11-02T14:59:30;17.52;;;5.78;;
19030;SDS011;9648;51.130;13.978;2022-11-02T15:02:00;14.50;;;6.20;;
19030;SDS011;9648;51.130;13.978;2022-11-02T15:04:30;17.27;;;8.55;;
19030;SDS011;9648;51.130;13.978;2022-11-02T15:07:01;14.97;;;6.20;;
19030;SDS011;9648;51.130;13.978;2022-11-02T15:09:50;13.35;;;5.28;;
19030;SDS011;9648;51.130;13.978;2022-11-02T15:12:21;13.30;;;7.07;;
19030;SDS011;9648;51.130;13.978;2022-11-02T15:18:18;7.65;;;4.07;;